Terminal Aerodrome Forecast
Issued by NWS Boston, MA

Home | Current Version | Previous Version | Text Only | Print | Product List | Glossary On
Versions: 1 2 3 4 5 6 7 8 9 10 11 12 13 14 15 16 17 18 19 20 21 22 23 24 25 26 27 28 29 30 31 32 33 34 35 36 37 38 39 40
000
FTUS41 KBOX 302331
TAFBDL
TAF
KBDL 302331Z 3100/0106 19010KT P6SM BKN035
     FM311000 20006KT 5SM BR BKN025
     FM311200 20006KT 4SM BR BKN025
     FM311300 20007KT P6SM BKN025
     FM311600 21009KT P6SM BKN045
     FM312200 20007KT 5SM -SHRA VCTS BKN045 OVC090CB
     FM010000 20006KT 3SM -SHRA BR OVC035
     FM010300 21005KT 3SM BR OVC015=

USA.gov is the U.S. government's official web portal to all federal, state and local government web resources and services.